x

9442396 - La Push, Wa (lapw1) Weather Station

10:36 - Tue 31st Mar 2015 All times are PDT. -7 hours from GMT.

  • Wind
    6mph, 8mph gusts
  • Sea Temp 49°f
  • Aire Temp 50°f
  • Sea Pressure 1018.2mb
  • 9442396 - La Push, Wa
  • 9442396 - La Push, Wa

More Historic Weather Station data

Upgrade to MSW Pro to gain access to the past 30 days of data for over 8000 Wavebouys and Weather Stations around the globe.

Join Pro

Comparision Forecast

View Surf forecast
   
mar 03/31 10:36 6 8 mph 1018.2mb 49f 50f
10:30 6 7 mph 1018.1mb 49f 50f
10:24 5 7 mph 1018.1mb 49f 50f
10:18 5 7 mph 1018mb 49f 49f
10:12 3 6 mph 1017.9mb 49f 49f
10:06 5 7 mph 1017.8mb 49f 49f
10:00 6 7 mph 1017.8mb 50f 49f
9:36 6 9 mph 1017.5mb 50f 49f
9:30 7 9 mph 1017.4mb 50f 49f
9:24 8 11 mph 1017.4mb 49f 49f
9:18 10 13 mph 1017.3mb 49f 49f
9:12 9 11 mph 1017.2mb 49f 49f
9:06 7 9 mph 1017.1mb 49f 49f
9:00 7 10 mph 1017mb 49f 49f
8:36 9 10 mph 1016.8mb 49f 48f
8:30 8 10 mph 1016.8mb 49f 48f
8:24 6 8 mph 1016.7mb 49f 47f
8:18 6 9 mph 1016.7mb 49f 47f
8:12 8 14 mph 1016.7mb 49f 46f
8:06 17 28 mph 1016.9mb 49f 46f
8:00 8 10 mph 1016.5mb 49f 49f
7:36 9 15 mph 1016.4mb 49f 49f
7:30 10 14 mph 1016.4mb 49f 49f
7:24 10 14 mph 1016.4mb 49f 49f
7:18 13 15 mph 1016.4mb 49f 49f
7:12 11 14 mph 1016.4mb 49f 48f
7:06 11 14 mph 1016.3mb 49f 48f
7:00 11 14 mph 1016.3mb 49f 48f
6:36 16 20 mph 1016.1mb 49f 49f
6:30 16 21 mph 1016mb 49f 49f
6:24 17 21 mph 1016mb 49f 49f
6:18 18 23 mph 1015.9mb 49f 48f
6:12 21 24 mph 1015.9mb 49f 48f
6:06 18 23 mph 1015.8mb 49f 48f
6:00 14 18 mph 1015.5mb 49f 49f
5:36 11 14 mph 1015.3mb 49f 49f
5:30 11 16 mph 1015.2mb 49f 49f
5:24 14 17 mph 1015.3mb 49f 49f
5:18 14 17 mph 1015.2mb 49f 49f
5:12 14 16 mph 1015mb 49f 49f
5:06 9 14 mph 1014.9mb 49f 49f
5:00 8 11 mph 1014.8mb 49f 49f
4:36 14 16 mph 1014.7mb 49f 49f
4:30 11 15 mph 1014.5mb 49f 49f
4:24 13 15 mph 1014.5mb 49f 49f
4:18 13 14 mph 1014.5mb 49f 49f
4:12  -  mph 1014.4mb 49f -
4:06 11 16 mph 1014.2mb 49f 49f
4:00 14 17 mph 1014.3mb 49f 49f
3:36 14 17 mph 1014.1mb 49f 49f
3:30 13 16 mph 1014.1mb 49f 49f
3:24 13 17 mph 1014.1mb 49f 49f
3:18 14 16 mph 1014mb 49f 49f
3:12 14 17 mph 1014mb 49f 49f
3:06 14 18 mph 1014mb 49f 49f
3:00 11 16 mph 1013.9mb 49f 49f
2:36 13 16 mph 1013.7mb 49f 49f
2:30 14 17 mph 1013.7mb 49f 49f
2:24 11 16 mph 1013.7mb 49f 49f
2:18 11 17 mph 1013.6mb 49f 49f
2:12 11 15 mph 1013.6mb 49f 49f
2:06 10 11 mph 1013.5mb 49f 49f
2:00 9 13 mph 1013.5mb 49f 48f
1:36 8 13 mph 1013.2mb 49f 48f
1:30 9 14 mph 1013.2mb 49f 48f
1:24 10 14 mph 1013.1mb 49f 48f
1:18 11 14 mph 1013mb 49f 48f
1:12 13 16 mph 1013mb 49f 48f
1:06 13 15 mph 1012.9mb 49f 48f
1:00 10 14 mph 1012.7mb 49f 48f
12:36 11 15 mph 1012.5mb 49f 47f
12:30 13 15 mph 1012.4mb 49f 47f
12:24 11 14 mph 1012.3mb 49f 47f
12:18 10 14 mph 1012.2mb 49f 47f
12:12 10 13 mph 1012.1mb 49f 47f
12:06 11 14 mph 1012.1mb 49f 47f
12:00 11 15 mph 1012.2mb 49f 46f
lun 03/30 11:36 13 16 mph - - 46f
11:30 8 17 mph 1011.7mb 50f 46f
11:24 15 18 mph - - 46f
11:18 14 17 mph 1011.6mb 50f 46f
11:12 14 17 mph - - 47f
11:06 15 20 mph - - 46f
11:00 16 22 mph 1011.6mb 50f 47f
10:36 21 29 mph 1011.6mb 50f 47f
10:30 28 30 mph 1011.8mb 50f 47f
10:24 23 31 mph 1011.5mb 50f 47f
10:18 24 28 mph 1011.4mb 50f 47f
10:12 24 26 mph 1011.5mb 50f 47f
10:06 22 28 mph 1011.4mb 50f 47f
10:00 21 28 mph 1011.2mb 49f 47f
9:36 21 31 mph 1011.1mb 50f 47f
9:30 24 32 mph 1010.9mb 49f 47f
9:24 29 33 mph 1010.9mb 50f 47f
9:18 26 30 mph 1010.5mb 50f 47f
9:12 21 26 mph 1010.5mb 50f 47f
9:06 16 21 mph 1010.5mb 49f 48f
9:00 15 30 mph - - 49f
8:36 9 23 mph 1009.4mb 49f 52f
8:30 11 18 mph 1009.4mb 50f 53f
8:24 14 21 mph 1009.4mb 49f 53f
8:18 13 21 mph 1009.4mb 49f 53f
8:12 14 22 mph 1009.3mb 49f 53f
8:06 8 21 mph 1009.4mb 49f 52f
8:00 8 21 mph 1009.5mb 49f 52f
7:36 14 24 mph 1009.8mb 49f 52f
7:30 14 23 mph 1009.8mb 49f 52f
7:24 15 28 mph 1010mb 49f 53f
7:18 14 21 mph 1010.1mb 49f 53f
7:12 14 21 mph - - 53f
7:06 14 22 mph 1010.6mb 49f 53f
7:00 10 18 mph 1010.7mb 49f 53f
6:36 15 26 mph 1011.1mb 50f 53f
6:30 14 24 mph 1011.1mb 50f 52f
6:24 14 22 mph 1011.1mb 50f 52f
6:18 17 24 mph 1011.2mb 50f 52f
6:12 16 26 mph 1011.5mb 50f 53f
6:06 16 26 mph - - 53f
6:00 21 28 mph - - 53f
5:36 14 18 mph 1011.7mb 50f 53f
5:30 10 21 mph 1011.8mb 50f 53f
5:24 18 29 mph 1011.9mb 50f 53f
5:18  -  mph 1011.9mb 50f -
5:12 15 23 mph - - 53f
5:06 17 25 mph 1012.1mb 50f 53f
5:00 11 29 mph 1012.2mb 50f 53f
4:36 13 22 mph 1012.4mb 50f 53f
4:30 17 28 mph 1012.5mb 50f 53f
4:24 14 20 mph 1012.6mb 49f 53f
4:18 13 26 mph 1012.7mb 50f 53f
4:12 13 18 mph 1012.7mb 50f 53f
4:06 13 28 mph 1012.9mb 50f 54f
4:00 15 23 mph 1013mb 50f 53f
3:36 11 24 mph 1013.4mb 50f 53f
3:30 15 24 mph 1013.5mb 49f 53f
3:24 16 22 mph 1013.6mb 49f 53f
3:18 16 23 mph 1013.8mb 49f 53f
3:12 17 22 mph 1013.9mb 49f 53f
3:06 14 22 mph 1013.9mb 49f 53f
3:00 15 22 mph 1014.1mb 49f 53f
2:36 16 23 mph 1014.5mb 49f 53f
2:30 13 24 mph 1014.6mb 49f 53f
2:24 11 21 mph 1014.7mb 49f 54f
2:18 14 18 mph 1014.7mb 49f 54f
2:12 16 23 mph 1014.8mb 49f 53f
2:06 14 21 mph 1014.9mb 49f 53f
2:00 16 22 mph 1014.9mb 49f 53f
1:36 15 21 mph 1015.2mb 49f 53f
1:30 13 20 mph 1015.3mb 49f 53f
1:24 9 24 mph 1015.4mb 49f 54f
1:18 15 23 mph 1015.4mb 49f 53f
1:12 11 25 mph 1015.5mb 49f 53f
1:06 14 18 mph 1015.6mb 49f 53f
1:00 14 21 mph 1015.7mb 49f 53f
12:36 13 18 mph 1016mb 49f 53f
12:30 11 24 mph 1016mb 49f 53f
12:24 8 20 mph 1016mb 49f 53f
12:18 10 22 mph 1016.1mb 49f 53f
12:12 11 24 mph 1016.3mb 49f 53f
12:06 10 22 mph 1016.4mb 49f 52f
12:00 16 24 mph 1016.5mb 49f 52f
11:36 15 24 mph 1016.5mb 49f 52f
11:30 15 21 mph 1016.6mb 49f 52f
11:24 16 23 mph 1016.5mb 49f 52f
11:18 16 22 mph 1016.5mb 49f 53f
11:12 18 29 mph - - 52f
11:06  -  mph 1016.6mb 49f -
11:00 16 25 mph 1016.6mb 49f 52f
10:54 16 24 mph 1016.6mb 49f 52f
10:48 18 25 mph 1016.6mb 49f 52f
10:36 15 26 mph 1016.7mb 49f 51f
10:30 17 23 mph 1016.7mb 49f 51f
10:24 15 23 mph 1016.6mb 49f 52f
10:18 15 24 mph 1016.6mb 49f 51f
10:12 17 23 mph 1016.6mb 49f 51f
10:06 13 20 mph 1016.5mb 49f 51f
10:00 13 23 mph 1016.5mb 49f 51f
9:54 13 23 mph 1016.6mb 49f 51f
9:48 16 24 mph 1016.7mb 49f 51f
9:36 18 25 mph 1016.8mb 49f 51f
9:30 17 28 mph 1016.8mb 49f 51f
9:24 11 23 mph 1016.8mb 49f 52f
9:18 10 17 mph 1016.9mb 49f 52f
9:12 13 20 mph 1016.8mb 49f 52f
9:06 18 28 mph 1016.9mb 49f 52f
9:00 17 24 mph 1017mb 49f 52f
8:54 16 25 mph 1017mb 49f 52f
8:48 15 23 mph 1017mb 49f 52f
8:36 16 22 mph 1017mb 49f 52f
8:30 13 18 mph 1017mb 49f 52f
8:24 13 20 mph 1017mb 49f 52f
8:18 10 22 mph 1017mb 49f 52f
8:12 13 22 mph 1017mb 49f 52f
8:06 10 22 mph 1017mb 49f 52f
8:00 9 18 mph 1017mb 49f 52f
7:54 11 16 mph - - 52f
7:48 13 20 mph - - 52f
7:36 7 20 mph - - 52f
7:30 14 18 mph 1017.1mb 49f 52f
7:24 10 24 mph - - 52f
7:18 10 24 mph - - 52f
7:12 14 20 mph - - 52f
7:06 11 25 mph 1017.2mb 49f 52f
7:00 15 24 mph - - 52f
6:54 15 24 mph - - 52f
6:48 15 23 mph 1017.2mb 49f 52f
6:36 15 21 mph - - 53f
6:30 14 20 mph - - 53f
6:24 15 21 mph 1017.3mb 49f 53f
6:18 14 22 mph 1017.3mb 49f 52f
6:12 13 23 mph 1017.3mb 49f 52f
6:06 11 24 mph 1017.4mb 49f 52f
6:00 11 21 mph 1017.4mb 49f 52f
5:54 16 23 mph 1017.4mb 49f 53f
5:48 15 22 mph 1017.4mb 49f 52f
5:36 11 21 mph 1017.6mb 49f 53f
5:30 13 21 mph 1017.6mb 49f 53f
5:24 15 18 mph 1017.6mb 49f 53f
5:18 14 20 mph 1017.6mb 49f 53f
5:12 13 17 mph 1017.6mb 49f 53f
5:06 14 22 mph 1017.7mb 49f 53f
5:00 14 22 mph 1017.7mb 49f 53f
4:54 17 24 mph 1017.7mb 49f 53f
4:48 14 22 mph 1017.8mb 49f 53f
4:36 14 20 mph 1017.9mb 49f 53f
4:30 14 18 mph 1017.9mb 49f 53f
4:24 13 20 mph 1017.8mb 49f 53f
4:18 13 18 mph 1017.9mb 49f 53f
4:12 16 22 mph 1017.9mb 49f 53f
4:06 15 21 mph 1017.9mb 49f 53f
4:00 16 22 mph 1018mb 49f 53f
3:54 15 22 mph 1018mb 49f 53f
3:48 14 23 mph 1018.1mb 49f 53f
3:36 15 22 mph 1018.2mb 49f 53f
3:30 10 18 mph 1018.2mb 49f 53f
3:24 11 23 mph 1018.3mb 49f 53f
3:18 13 20 mph 1018.5mb 49f 53f
3:12 11 22 mph 1018.4mb 49f 53f
3:06 9 21 mph 1018.5mb 49f 53f
3:00 13 18 mph 1018.5mb 49f 53f
2:54 10 20 mph 1018.5mb 49f 53f
2:48 11 21 mph 1018.5mb 49f 53f
2:36 14 23 mph 1018.6mb 49f 53f
2:30 11 20 mph 1018.6mb 49f 53f
2:24 8 18 mph 1018.7mb 49f 53f
2:18 14 22 mph 1018.7mb 49f 53f
2:12 10 18 mph 1018.8mb 49f 53f
2:06 11 20 mph 1018.8mb 49f 53f
2:00 15 22 mph 1018.8mb 49f 53f
1:54 14 21 mph 1018.8mb 49f 53f
1:48 13 18 mph 1018.9mb 49f 53f
1:36 8 21 mph 1018.9mb 49f 53f
1:30 13 21 mph - - 53f
1:24 15 21 mph 1018.9mb 49f 53f
1:18 14 17 mph 1018.9mb 49f 53f
1:12 13 20 mph 1018.9mb 49f 53f
1:06 10 20 mph 1018.9mb 49f 53f
1:00 10 16 mph 1018.9mb 49f 53f
12:54 11 21 mph 1018.9mb 49f 53f
12:48 10 21 mph 1018.9mb 49f 53f
12:36 11 18 mph 1019mb 49f 53f
12:30 14 23 mph 1019.1mb 49f 53f
12:24 13 22 mph 1019.1mb 49f 53f
12:18 13 21 mph 1019.2mb 49f 53f
12:12 11 20 mph 1019.2mb 49f 53f
12:06 14 18 mph - - 53f
12:00 11 18 mph 1019.3mb 49f 53f
dom 03/29 11:54 16 20 mph - - 53f
11:48 11 21 mph - - 53f
11:36 13 20 mph - - 53f
11:30 10 18 mph 1019.5mb 49f 53f
11:24 14 20 mph - - 53f
11:18 13 17 mph 1019.7mb 49f 53f
11:12 14 20 mph - - 53f
11:06 11 20 mph 1019.7mb 49f 53f
11:00 13 20 mph - - 53f
10:54 13 16 mph 1019.7mb 49f 53f
10:48 14 17 mph 1019.7mb 49f 53f
10:36 13 18 mph 1019.7mb 49f 53f
10:30 13 17 mph 1019.7mb 49f 53f
10:24 14 18 mph 1019.7mb 49f 53f
10:18 14 20 mph 1019.7mb 49f 53f
10:12 14 18 mph 1019.7mb 49f 53f
10:06 14 17 mph 1019.8mb 49f 53f
10:00 14 18 mph 1019.8mb 49f 53f
9:54 15 18 mph 1019.7mb 49f 53f
9:48 13 17 mph 1019.7mb 49f 53f
9:36 13 16 mph 1019.8mb 49f 53f
9:30 13 16 mph 1019.7mb 49f 53f
9:24 11 15 mph 1019.8mb 49f 53f
9:18 10 15 mph 1019.8mb 48f 53f
9:12 11 16 mph 1019.8mb 49f 53f
9:06 11 16 mph 1019.7mb 49f 53f
9:00 13 17 mph 1019.8mb 49f 53f
8:54 13 15 mph 1019.8mb 49f 53f
8:48 13 15 mph 1019.7mb 49f 53f
8:36 11 15 mph 1019.8mb 49f 53f
8:30 11 16 mph 1019.7mb 49f 52f
8:24 11 15 mph 1019.8mb 49f 53f
8:18 11 15 mph 1019.8mb 49f 52f
8:12 13 16 mph 1019.8mb 49f 53f
8:06 11 15 mph 1019.8mb 49f 53f
8:00 11 16 mph 1019.8mb 49f 53f
7:54 13 17 mph 1019.7mb 49f 53f
7:48 13 16 mph 1019.8mb 49f 53f
7:36 10 14 mph 1019.8mb 49f 53f
7:30 10 15 mph 1019.8mb 49f 53f
7:24 9 16 mph 1019.8mb 49f 53f
7:18 11 17 mph 1019.9mb 49f 53f
7:12 9 16 mph 1019.9mb 49f 53f
7:06 10 14 mph 1019.9mb 49f 53f
7:00 8 13 mph 1020mb 49f 53f
6:54 9 14 mph 1020.1mb 49f 53f
6:48 9 13 mph 1020.1mb 49f 53f
6:36 10 14 mph 1020.2mb 49f 53f
6:30 9 11 mph 1020.3mb 49f 53f
6:24 9 11 mph 1020.3mb 49f 53f
6:18 7 14 mph 1020.3mb 49f 53f
6:12 9 13 mph 1020.4mb 49f 53f
6:06 9 11 mph 1020.4mb 49f 53f
6:00 11 14 mph 1020.6mb 49f 53f
5:54 10 13 mph - - 53f
5:48 11 15 mph 1020.7mb 49f 53f
5:36 10 13 mph 1020.8mb 49f 53f
5:30 10 16 mph 1020.8mb 49f 53f
5:24 9 14 mph 1020.8mb 49f 53f
5:18 10 14 mph 1020.8mb 49f 53f
5:12 9 14 mph 1020.8mb 49f 53f
5:06 10 13 mph 1020.8mb 49f 53f
5:00 9 13 mph 1020.9mb 49f 53f
4:54 9 13 mph 1021mb 49f 53f
4:48 10 13 mph 1021mb 49f 53f
4:36 10 15 mph 1021.1mb 49f 53f
4:30 7 13 mph - - 53f
4:24 9 13 mph 1021mb 49f 53f
4:18 6 10 mph 1021.1mb 49f 53f
4:12 6 8 mph 1021.1mb 49f 53f
4:06 3 5 mph 1021.1mb 49f 52f
4:00 3 5 mph 1021.2mb 49f 52f
3:54 1 2 mph 1021.2mb 49f 51f
3:48 1 2 mph 1021.2mb 49f 51f
3:36 1 2 mph 1021.3mb 49f 51f
3:30  -  1 mph 1021.4mb 49f 52f
3:24  -  1 mph 1021.5mb 49f 51f
3:18 1
mph
1021.5mb 49f 51f
3:12 1 2 mph 1021.6mb 49f 51f
3:06 2 3 mph 1021.6mb 49f 51f
3:00 3 5 mph 1021.6mb 49f 51f
2:54 2 3 mph - - 51f
2:48 3
mph
1021.6mb 49f 51f
2:36 3 5 mph 1021.7mb 49f 51f
2:30 3 6 mph 1021.8mb 49f 51f
2:24 6
mph
1021.8mb 49f 51f
2:18 6 7 mph 1021.8mb 49f 51f
2:12 7 8 mph 1021.9mb 49f 51f
2:06 5 6 mph 1021.9mb 49f 51f
2:00 5 6 mph 1021.9mb 49f 51f
1:54 6 8 mph 1021.9mb 49f 52f
1:48 7 17 mph 1021.9mb 49f 52f
1:36 14 18 mph 1021.8mb 49f 53f
1:30 15 18 mph 1021.8mb 49f 53f
1:24 16 22 mph 1021.8mb 49f 53f
1:18 16 22 mph 1021.8mb 49f 53f
1:12 15 22 mph 1021.8mb 49f 53f
1:06 14 22 mph 1021.8mb 49f 53f
1:00 16 22 mph 1021.8mb 49f 53f
12:54 13 22 mph 1021.8mb 49f 53f
12:48 13 23 mph 1021.8mb 49f 52f
12:36 11 20 mph 1021.8mb 49f 51f
12:30 9 20 mph 1021.7mb 49f 51f
12:24 14 20 mph - - 51f
12:18 14 21 mph - - 51f
12:12  -  mph 1021.7mb 49f -
12:06 14 24 mph 1021.8mb 49f 51f
12:00 15 21 mph 1021.7mb 49f 51f
11:54  -  mph 1021.7mb 49f -
11:48 11 21 mph 1021.7mb 49f 51f
11:36 13 22 mph 1021.8mb 49f 51f
11:30 14 24 mph 1021.8mb 49f 51f
11:24 14 25 mph 1021.8mb 49f 51f
11:18 15 23 mph 1021.8mb 49f 51f
11:12 14 21 mph 1021.9mb 49f 51f
11:06 10 21 mph 1021.9mb 49f 51f
11:00 16 26 mph - - 51f
10:54 13 24 mph 1021.9mb 49f 50f
10:48 14 22 mph 1021.8mb 49f 50f
10:36 17 24 mph 1021.8mb 49f 50f
10:30 17 28 mph 1021.8mb 50f 50f
10:24 13 28 mph 1021.7mb 50f 50f
10:18 16 29 mph 1021.7mb 50f 50f
10:12 16 22 mph - - 50f
10:06 15 23 mph 1021.6mb 51f 50f
10:00 14 22 mph 1021.5mb 51f 51f
9:54 16 25 mph 1021.4mb 51f 51f
9:48 16 26 mph 1021.5mb 51f 50f
9:36 11 23 mph 1021.5mb 52f 50f
9:30 14 23 mph 1021.6mb 52f 50f
9:24 11 24 mph - - 50f
9:18 14 29 mph 1021.5mb 52f 50f
9:12 14 20 mph 1021.5mb 52f 50f
9:06 14 24 mph 1021.5mb 52f 50f
9:00 18 29 mph 1021.5mb 51f 50f
8:54 11 29 mph 1021.5mb 51f 50f
8:48 15 24 mph 1021.6mb 51f 50f
8:36 16 30 mph 1021.6mb 51f 50f
8:30 15 25 mph 1021.6mb 52f 50f
8:24 17 26 mph 1021.6mb 52f 50f
8:18 14 22 mph 1021.6mb 52f 50f
8:12 14 28 mph 1021.6mb 52f 49f
8:06 16 26 mph 1021.6mb 52f 49f
8:00 14 28 mph 1021.6mb 52f 49f
7:54 17 28 mph 1021.6mb 52f 49f
7:48 10 24 mph 1021.6mb 52f 49f
7:36 20 31 mph 1021.7mb 52f 49f
7:30 18 28 mph - - 49f
7:24 14 26 mph 1021.8mb 51f 49f
7:18 13 26 mph 1021.8mb 51f 49f
7:12 15 24 mph 1021.8mb 51f 49f
7:06 15 25 mph - - 49f
7:00 11 23 mph - - 49f
6:54 15 24 mph 1021.8mb 50f 49f
6:48 14 25 mph 1021.8mb 50f 50f
6:36 15 29 mph 1021.8mb 49f 49f
6:30 14 22 mph 1021.8mb 49f 49f
6:24 15 24 mph 1021.8mb 49f 49f
6:18 16 26 mph 1021.8mb 49f 49f
6:12 15 24 mph 1021.9mb 49f 49f
6:06 14 26 mph 1021.9mb 49f 49f
6:00 10 26 mph 1022.1mb 49f 49f
5:54 14 26 mph 1022mb 49f 49f
5:48 13 24 mph 1022.1mb 49f 49f
5:36 14 25 mph 1022mb 49f 49f
5:30 11 20 mph 1022mb 49f 49f
5:24 14 25 mph 1022.1mb 49f 49f
5:18 15 25 mph 1022.1mb 49f 49f
5:12 11 20 mph 1022.3mb 49f 49f
5:06 13 22 mph 1022.3mb 49f 49f
5:00 15 24 mph 1022.2mb 49f 49f
4:54 8 18 mph 1022.2mb 49f 49f
4:48 9 21 mph 1022.3mb 49f 49f
sáb 03/28 10:36 9 24 mph - - 50f
10:30 9 20 mph 1025.3mb 51f 50f
10:24 13 29 mph 1025.3mb 52f 50f
10:18 10 16 mph 1025.3mb 52f 50f
10:12 8 18 mph 1025.4mb 52f 50f
10:06 10 18 mph 1025.4mb 52f 50f
10:00 13 21 mph 1025.4mb 52f 51f
9:54 9 15 mph 1025.4mb 52f 50f
9:48 8 20 mph 1025.4mb 52f 51f
9:36 8 18 mph 1025.4mb 52f 51f
9:30 8 18 mph 1025.5mb 52f 51f
9:24 13 17 mph 1025.3mb 52f 50f
9:18 9 18 mph 1025.4mb 52f 51f
9:12 9 16 mph 1025.3mb 52f 51f
9:06 11 16 mph - - 51f
9:00 7 16 mph - - 51f
8:54 14 18 mph 1025.3mb 52f 51f
8:48 9 15 mph 1025.4mb 52f 51f
8:36 14 22 mph 1025.3mb 51f 51f
8:30 11 21 mph 1025.3mb 51f 51f
8:24 11 22 mph 1025.2mb 51f 51f
8:18 16 24 mph 1025.2mb 50f 51f
8:12 16 26 mph 1025.1mb 50f 51f
8:06 14 22 mph 1025.2mb 49f 51f
8:00 13 18 mph 1025.2mb 49f 51f
7:54 10 20 mph 1025.2mb 49f 51f
7:48 15 23 mph 1025.3mb 49f 51f
7:36 11 21 mph 1025.3mb 49f 51f
7:30 10 17 mph 1025.4mb 49f 51f
7:24 11 20 mph 1025.4mb 49f 51f
7:18 13 20 mph 1025.5mb 49f 51f
7:12 9 16 mph 1025.6mb 49f 51f
7:06 9 15 mph 1025.6mb 49f 51f
7:00 9 16 mph 1025.6mb 49f 50f
6:54 8 21 mph 1025.6mb 49f 51f
6:48 10 21 mph 1025.6mb 49f 51f
6:36 11 22 mph 1025.7mb 49f 50f
6:30 17 24 mph 1025.8mb 49f 51f
6:24 18 23 mph 1025.9mb 49f 51f
6:18 16 22 mph 1026mb 49f 51f
6:12 18 24 mph 1026mb 49f 51f
6:06 18 23 mph 1026mb 49f 51f
6:00 13 18 mph 1026.1mb 49f 51f
5:54 15 20 mph 1026mb 49f 51f
5:48 16 22 mph 1026.1mb 49f 51f
5:36 15 20 mph 1026.1mb 50f 51f
5:30 15 21 mph 1026.2mb 49f 52f
5:24 14 22 mph 1026.2mb 50f 52f
5:18 17 23 mph 1026.3mb 50f 52f
5:12 17 22 mph 1026.2mb 49f 52f
5:06 15 25 mph 1026.3mb 49f 52f
5:00 14 22 mph 1026.4mb 49f 52f
4:54 11 20 mph 1026.4mb 49f 52f
4:48 14 21 mph 1026.4mb 49f 52f
4:36 13 20 mph 1026.4mb 49f 51f
4:30 13 21 mph 1026.5mb 49f 51f
4:24 17 23 mph 1026.4mb 49f 51f
4:18 11 23 mph 1026.6mb 49f 51f
4:12 16 22 mph 1026.6mb 49f 51f
4:06 15 20 mph 1026.7mb 49f 51f
4:00 15 20 mph 1026.7mb 49f 51f
3:54 14 21 mph 1026.6mb 49f 51f
3:48 16 22 mph 1026.6mb 49f 52f
3:36 16 25 mph 1026.4mb 49f 52f
3:30 18 25 mph 1026.5mb 49f 52f
3:24 16 20 mph 1026.5mb 49f 52f
3:18 15 21 mph 1026.5mb 49f 52f
3:12 16 22 mph 1026.5mb 49f 52f
3:06 13 20 mph 1026.5mb 49f 52f
3:00 10 21 mph 1026.5mb 49f 51f
2:54 8 18 mph 1026.5mb 49f 51f
2:48 14 18 mph 1026.6mb 49f 51f
2:36 9 20 mph 1026.7mb 49f 52f
2:30 13 21 mph 1026.7mb 49f 52f
2:24 11 18 mph 1026.7mb 49f 52f
2:18 14 20 mph 1026.8mb 49f 52f
2:12 14 20 mph 1026.8mb 49f 52f
2:06 16 21 mph 1026.8mb 49f 52f
2:00 14 22 mph 1026.8mb 49f 52f
1:54 15 18 mph 1026.8mb 49f 52f
1:48 14 22 mph 1026.8mb 49f 52f
1:36 15 20 mph 1026.8mb 49f 52f
1:30 9 21 mph 1026.8mb 49f 52f
1:24 13 18 mph 1026.8mb 49f 52f
1:18 11 20 mph 1026.8mb 49f 52f
1:12 9 16 mph 1026.8mb 49f 52f
1:06 14 22 mph 1026.8mb 49f 52f
1:00 11 17 mph 1026.9mb 49f 51f
12:54 15 20 mph 1026.8mb 49f 51f
12:48 14 18 mph 1026.8mb 49f 51f
12:36 13 20 mph 1026.6mb 49f 52f
12:30 11 20 mph 1026.4mb 49f 52f
12:24 11 18 mph 1026.4mb 49f 52f
12:18 13 16 mph 1026.1mb 49f 52f
12:12  -  mph 1025.9mb 49f -
12:06 9 21 mph 1025.8mb 49f 52f
12:00 14 18 mph 1025.6mb 49f 51f
11:54 14 20 mph 1025.7mb 49f 52f
11:48  -  mph 1025.8mb 49f -
11:36 13 17 mph 1025.9mb 49f 52f
11:30 9 14 mph 1026mb 49f 52f
11:24 15 18 mph 1026mb 49f 52f
11:18 15 18 mph 1026mb 49f 52f
11:12 10 18 mph 1025.9mb 49f 52f
11:06 11 15 mph 1025.9mb 49f 52f
11:00 13 16 mph 1025.9mb 49f 52f
10:54  -  mph 1025.9mb 49f -
10:48 10 14 mph 1025.8mb 49f 52f
10:36 9 14 mph 1025.8mb 49f 52f
10:30 10 14 mph 1025.8mb 49f 52f
10:24 9 11 mph 1025.7mb 49f 52f
10:18 9 13 mph 1025.6mb 49f 52f
10:12 8 10 mph 1025.6mb 49f 52f
10:06 8 11 mph 1025.5mb 49f 51f
10:00 10 13 mph 1025.6mb 49f 51f
9:54 9 10 mph 1025.5mb 49f 51f
9:48 8 11 mph 1025.5mb 49f 51f
9:36 8 10 mph 1025.3mb 49f 51f
9:30 7 11 mph 1025.2mb 49f 51f
9:24 6 10 mph 1025.2mb 49f 51f
9:18 9 11 mph 1025.1mb 49f 51f
9:12 6 11 mph 1025mb 49f 51f
9:06 8 10 mph 1025mb 49f 51f
9:00 9 13 mph 1025mb 49f 51f
8:54 9 13 mph 1025mb 49f 51f
8:48 10 13 mph 1024.9mb 49f 51f
8:36 8 14 mph 1024.8mb 49f 51f
8:30 7 13 mph 1024.7mb 49f 51f
8:24 10 13 mph 1024.6mb 49f 51f
8:18 10 15 mph 1024.6mb 50f 51f
8:12 13 14 mph 1024.6mb 50f 51f
8:06 11 16 mph 1024.5mb 50f 51f
8:00 14 17 mph 1024.6mb 51f 51f
7:54 14 20 mph 1024.5mb 51f 51f
7:48 14 17 mph 1024.3mb 51f 51f
7:36 14 17 mph 1024mb 51f 51f
7:30 14 20 mph - - 51f
7:24 13 16 mph 1023.8mb 51f 51f
7:18 13 16 mph 1023.5mb 51f 51f
7:12 13 14 mph 1023.3mb 51f 51f
7:06 10 14 mph 1023.2mb 51f 51f
7:00 9 13 mph 1023.1mb 51f 51f
6:54 9 13 mph 1023mb 51f 51f
6:48 11 16 mph 1022.9mb 51f 51f
6:36 14 18 mph 1022.8mb 51f 51f
6:30 14 18 mph 1022.7mb 51f 51f
6:24 15 18 mph 1022.6mb 50f 51f
6:18 15 21 mph 1022.5mb 50f 51f
6:12 15 22 mph 1022.4mb 50f 51f
6:06 14 17 mph 1022.3mb 49f 51f
6:00 13 21 mph 1022.2mb 49f 51f
5:54 17 22 mph 1022.2mb 49f 51f
5:48 14 18 mph 1022.1mb 49f 51f
5:36 14 21 mph 1021.9mb 49f 51f
5:30 14 20 mph 1021.8mb 49f 51f
5:24 13 17 mph 1021.7mb 49f 51f
5:18 11 16 mph 1021.6mb 49f 51f
5:12 13 16 mph 1021.6mb 49f 51f
5:06 14 17 mph 1021.6mb 49f 51f
5:00 16 18 mph 1021.5mb 49f 51f
4:54 15 20 mph 1021.4mb 49f 51f
4:48 15 20 mph 1021.3mb 49f 51f
4:36 15 20 mph 1021.1mb 49f 51f
4:30 14 18 mph 1021mb 49f 51f
4:24 15 18 mph 1020.9mb 49f 51f
4:18 14 17 mph 1020.7mb 49f 51f
4:12 15 21 mph 1020.7mb 49f 51f
4:06 16 21 mph 1020.8mb 49f 51f
4:00 15 22 mph 1020.7mb 49f 51f
3:54 18 23 mph 1020.7mb 49f 51f
3:48 17 22 mph 1020.6mb 49f 51f
3:36 20 25 mph 1020.5mb 49f 51f
3:30 17 23 mph 1020.4mb 49f 51f
3:24 18 23 mph 1020.3mb 49f 51f
3:18 16 24 mph 1020.2mb 49f 51f
3:12 16 25 mph 1020.1mb 49f 51f
3:06 14 23 mph 1019.9mb 49f 51f
3:00 16 22 mph 1019.9mb 49f 51f
2:54 15 21 mph 1019.8mb 49f 51f
2:48 15 21 mph 1019.7mb 49f 51f
2:36 16 22 mph 1019.7mb 49f 51f
2:30 16 23 mph 1019.7mb 49f 50f
2:24 15 22 mph 1019.6mb 49f 51f
2:18 17 23 mph 1019.5mb 49f 51f
2:12 18 23 mph 1019.5mb 49f 51f
2:06 16 23 mph 1019.3mb 49f 51f
2:00 17 21 mph 1019.3mb 49f 51f
1:36 14 18 mph 1018.8mb 49f 50f
1:30 17 25 mph 1018.8mb 49f 49f
1:24 17 25 mph 1018.8mb 49f 49f
1:18 20 25 mph 1018.6mb 49f 49f
1:12 23 29 mph 1018.7mb 49f 49f
1:06 18 23 mph 1018.4mb 49f 50f
1:00 18 24 mph 1018.3mb 49f 50f
12:54 18 24 mph 1018.3mb 49f 49f
12:48 21 25 mph 1018.3mb 49f 50f
12:36 20 22 mph 1018.1mb 49f 50f
12:30 16 20 mph 1018mb 49f 50f
12:24 16 22 mph 1018mb 49f 50f
12:18 13 16 mph 1017.8mb 49f 49f
12:12 15 23 mph 1017.8mb 49f 49f
12:06 17 21 mph 1017.8mb 49f 49f
12:00 16 23 mph - - 50f
vie 03/27 11:54 15 21 mph - - 51f
11:48 17 23 mph 1017.4mb 49f 51f
11:36 13 17 mph - - 51f
11:30 13 22 mph 1017.3mb 50f 51f
11:24 16 22 mph - - 50f
11:18 16 24 mph - - 50f
11:12 18 23 mph 1017.2mb 50f 50f
11:06 14 24 mph - - 50f
11:00 17 23 mph 1017.2mb 50f 51f
10:54 18 24 mph - - 51f
10:48 13 17 mph - - 51f
10:36 16 22 mph 1016.8mb 49f 51f
10:30 18 22 mph 1016.8mb 50f 51f
10:24 14 22 mph 1016.6mb 50f 51f
10:18 14 18 mph 1016.5mb 50f 51f
10:12 16 21 mph 1016.5mb 50f 51f
10:06 17 23 mph 1016.5mb 50f 51f
10:00 18 23 mph 1016.4mb 50f 52f
9:36 20 24 mph 1016.1mb 51f 52f
9:30 20 24 mph 1015.9mb 51f 52f
9:24 16 22 mph 1015.6mb 52f 52f
9:18 15 17 mph 1015.5mb 52f 52f
9:12 16 23 mph 1015.3mb 52f 52f
9:06 18 25 mph 1015.4mb 52f 53f
9:00 14 20 mph 1015.3mb 52f 52f
8:54 16 23 mph 1015.2mb 52f 53f
8:48 14 23 mph 1015.3mb 52f 53f
8:36 11 17 mph 1015.1mb 52f 52f
8:30 13 17 mph 1014.8mb 52f 52f
8:24 14 20 mph 1014.6mb 52f 52f
8:18 14 16 mph 1014.6mb 52f 52f
8:12 14 17 mph - - 52f
8:06 13 17 mph 1014mb 52f 52f
8:00 11 17 mph 1014.1mb 52f 52f
7:54 13 15 mph 1014.2mb 52f 52f
7:48 11 16 mph 1014mb 52f 52f
7:36 8 16 mph 1013.9mb 52f 52f
7:30 9 13 mph 1013.9mb 52f 52f
7:24 7 14 mph 1013.8mb 52f 52f
7:18 13 15 mph 1013.7mb 52f 52f
7:12 10 15 mph 1013.7mb 52f 51f
7:06 10 18 mph 1013.9mb 52f 51f
7:00 13 18 mph 1013.9mb 52f 52f